sensor_id;sensor_type;location;lat;lon;timestamp;pressure;altitude;pressure_sealevel;temperature;humidity
84853;BME280;75109;47.440;19.310;2024-01-11T00:00:27;101352.00;;;-3.40;72.15
84853;BME280;75109;47.440;19.310;2024-01-11T00:00:59;101343.63;;;-3.39;72.30
84853;BME280;75109;47.440;19.310;2024-01-11T00:01:31;101349.72;;;-3.37;72.04
84853;BME280;75109;47.440;19.310;2024-01-11T00:02:03;101349.09;;;-3.39;71.69
84853;BME280;75109;47.440;19.310;2024-01-11T00:02:36;101342.56;;;-3.38;72.00
84853;BME280;75109;47.440;19.310;2024-01-11T00:03:08;101341.72;;;-3.38;72.46
84853;BME280;75109;47.440;19.310;2024-01-11T00:03:40;101340.06;;;-3.39;72.01
84853;BME280;75109;47.440;19.310;2024-01-11T00:04:12;101352.25;;;-3.42;72.56
84853;BME280;75109;47.440;19.310;2024-01-11T00:04:44;101347.88;;;-3.43;72.54
84853;BME280;75109;47.440;19.310;2024-01-11T00:05:16;101351.00;;;-3.46;72.28
84853;BME280;75109;47.440;19.310;2024-01-11T00:05:48;101344.28;;;-3.43;72.99
84853;BME280;75109;47.440;19.310;2024-01-11T00:06:21;101344.91;;;-3.41;72.25
84853;BME280;75109;47.440;19.310;2024-01-11T00:06:53;101339.44;;;-3.41;72.26
84853;BME280;75109;47.440;19.310;2024-01-11T00:07:25;101350.34;;;-3.41;72.29
84853;BME280;75109;47.440;19.310;2024-01-11T00:07:57;101343.66;;;-3.45;72.34
84853;BME280;75109;47.440;19.310;2024-01-11T00:08:29;101334.41;;;-3.44;72.28
84853;BME280;75109;47.440;19.310;2024-01-11T00:09:01;101342.84;;;-3.46;72.08
84853;BME280;75109;47.440;19.310;2024-01-11T00:09:33;101343.06;;;-3.47;72.05
84853;BME280;75109;47.440;19.310;2024-01-11T00:10:05;101341.59;;;-3.50;72.00
84853;BME280;75109;47.440;19.310;2024-01-11T00:10:38;101342.44;;;-3.49;72.60
84853;BME280;75109;47.440;19.310;2024-01-11T00:11:10;101339.72;;;-3.49;72.44
84853;BME280;75109;47.440;19.310;2024-01-11T00:11:44;101344.13;;;-3.48;72.17
84853;BME280;75109;47.440;19.310;2024-01-11T00:12:16;101348.75;;;-3.49;72.82
84853;BME280;75109;47.440;19.310;2024-01-11T00:12:48;101335.94;;;-3.48;72.34
84853;BME280;75109;47.440;19.310;2024-01-11T00:13:20;101343.06;;;-3.47;72.40
84853;BME280;75109;47.440;19.310;2024-01-11T00:13:52;101346.00;;;-3.49;72.75
84853;BME280;75109;47.440;19.310;2024-01-11T00:14:24;101342.84;;;-3.46;72.97
84853;BME280;75109;47.440;19.310;2024-01-11T00:14:56;101345.31;;;-3.44;72.51
84853;BME280;75109;47.440;19.310;2024-01-11T00:15:28;101344.28;;;-3.43;72.46
84853;BME280;75109;47.440;19.310;2024-01-11T00:16:00;101340.50;;;-3.42;72.39
84853;BME280;75109;47.440;19.310;2024-01-11T00:16:32;101339.50;;;-3.48;72.28
84853;BME280;75109;47.440;19.310;2024-01-11T00:17:04;101340.78;;;-3.50;72.33
84853;BME280;75109;47.440;19.310;2024-01-11T00:17:37;101341.59;;;-3.50;72.89
84853;BME280;75109;47.440;19.310;2024-01-11T00:18:09;101345.78;;;-3.47;72.34
84853;BME280;75109;47.440;19.310;2024-01-11T00:18:41;101344.13;;;-3.48;72.47
84853;BME280;75109;47.440;19.310;2024-01-11T00:19:13;101340.34;;;-3.47;72.83
84853;BME280;75109;47.440;19.310;2024-01-11T00:19:45;101338.06;;;-3.50;72.16
84853;BME280;75109;47.440;19.310;2024-01-11T00:20:17;101347.91;;;-3.49;72.60
84853;BME280;75109;47.440;19.310;2024-01-11T00:20:49;101345.78;;;-3.47;72.58
84853;BME280;75109;47.440;19.310;2024-01-11T00:21:21;101346.63;;;-3.47;72.21
84853;BME280;75109;47.440;19.310;2024-01-11T00:21:54;101350.16;;;-3.46;72.33
84853;BME280;75109;47.440;19.310;2024-01-11T00:22:26;101345.31;;;-3.44;71.89
84853;BME280;75109;47.440;19.310;2024-01-11T00:22:58;101352.47;;;-3.43;72.67
84853;BME280;75109;47.440;19.310;2024-01-11T00:23:30;101344.53;;;-3.45;72.43
84853;BME280;75109;47.440;19.310;2024-01-11T00:24:03;101351.00;;;-3.46;72.00
84853;BME280;75109;47.440;19.310;2024-01-11T00:24:35;101358.56;;;-3.48;71.99
84853;BME280;75109;47.440;19.310;2024-01-11T00:25:08;101349.13;;;-3.45;72.33
84853;BME280;75109;47.440;19.310;2024-01-11T00:25:40;101346.41;;;-3.45;72.44
84853;BME280;75109;47.440;19.310;2024-01-11T00:26:12;101344.94;;;-3.48;72.60
84853;BME280;75109;47.440;19.310;2024-01-11T00:26:46;101349.59;;;-3.48;72.24
84853;BME280;75109;47.440;19.310;2024-01-11T00:27:18;101344.31;;;-3.50;72.35
84853;BME280;75109;47.440;19.310;2024-01-11T00:27:50;101345.41;;;-3.51;72.69
84853;BME280;75109;47.440;19.310;2024-01-11T00:28:22;101345.81;;;-3.54;72.71
84853;BME280;75109;47.440;19.310;2024-01-11T00:28:54;101336.81;;;-3.54;72.94
84853;BME280;75109;47.440;19.310;2024-01-11T00:29:26;101337.88;;;-3.55;73.05
84853;BME280;75109;47.440;19.310;2024-01-11T00:29:59;101339.97;;;-3.57;72.98
84853;BME280;75109;47.440;19.310;2024-01-11T00:30:31;101344.78;;;-3.53;72.49
84853;BME280;75109;47.440;19.310;2024-01-11T00:31:04;101335.34;;;-3.50;72.64
84853;BME280;75109;47.440;19.310;2024-01-11T00:31:36;101334.50;;;-3.51;71.97
84853;BME280;75109;47.440;19.310;2024-01-11T00:32:10;101341.22;;;-3.53;72.23
84853;BME280;75109;47.440;19.310;2024-01-11T00:32:42;101338.31;;;-3.58;72.93
84853;BME280;75109;47.440;19.310;2024-01-11T00:33:14;101342.97;;;-3.66;73.30
84853;BME280;75109;47.440;19.310;2024-01-11T00:33:46;101340.03;;;-3.64;72.87
84853;BME280;75109;47.440;19.310;2024-01-11T00:34:18;101334.13;;;-3.61;73.41
84853;BME280;75109;47.440;19.310;2024-01-11T00:34:50;101330.34;;;-3.60;73.09
84853;BME280;75109;47.440;19.310;2024-01-11T00:35:22;101334.53;;;-3.57;72.75
84853;BME280;75109;47.440;19.310;2024-01-11T00:35:54;101335.97;;;-3.55;72.82
84853;BME280;75109;47.440;19.310;2024-01-11T00:36:26;101335.13;;;-3.55;73.14
84853;BME280;75109;47.440;19.310;2024-01-11T00:37:00;101334.53;;;-3.57;73.13
84853;BME280;75109;47.440;19.310;2024-01-11T00:37:32;101328.91;;;-3.62;72.80
84853;BME280;75109;47.440;19.310;2024-01-11T00:38:04;101336.00;;;-3.61;73.24
84853;BME280;75109;47.440;19.310;2024-01-11T00:38:37;101333.06;;;-3.60;73.26
84853;BME280;75109;47.440;19.310;2024-01-11T00:39:09;101339.59;;;-3.61;72.49
84853;BME280;75109;47.440;19.310;2024-01-11T00:39:41;101333.28;;;-3.61;72.30
84853;BME280;75109;47.440;19.310;2024-01-11T00:40:13;101330.78;;;-3.63;73.09
84853;BME280;75109;47.440;19.310;2024-01-11T00:40:45;101335.22;;;-3.62;72.61
84853;BME280;75109;47.440;19.310;2024-01-11T00:41:17;101329.34;;;-3.66;73.21
84853;BME280;75109;47.440;19.310;2024-01-11T00:41:50;101326.22;;;-3.69;72.91
84853;BME280;75109;47.440;19.310;2024-01-11T00:42:22;101334.38;;;-3.69;73.15
84853;BME280;75109;47.440;19.310;2024-01-11T00:42:54;101334.63;;;-3.71;73.19
84853;BME280;75109;47.440;19.310;2024-01-11T00:43:27;101330.44;;;-3.73;73.07
84853;BME280;75109;47.440;19.310;2024-01-11T00:43:59;101327.47;;;-3.72;73.58
84853;BME280;75109;47.440;19.310;2024-01-11T00:44:31;101326.22;;;-3.69;73.20
84853;BME280;75109;47.440;19.310;2024-01-11T00:45:04;101329.16;;;-3.71;73.40
84853;BME280;75109;47.440;19.310;2024-01-11T00:45:36;101327.91;;;-3.68;73.03
84853;BME280;75109;47.440;19.310;2024-01-11T00:46:08;101330.41;;;-3.67;72.56
84853;BME280;75109;47.440;19.310;2024-01-11T00:46:40;101330.63;;;-3.68;72.86
84853;BME280;75109;47.440;19.310;2024-01-11T00:47:12;101328.31;;;-3.71;73.31
84853;BME280;75109;47.440;19.310;2024-01-11T00:47:44;101323.09;;;-3.73;72.66
84853;BME280;75109;47.440;19.310;2024-01-11T00:48:17;101321.44;;;-3.74;73.27
84853;BME280;75109;47.440;19.310;2024-01-11T00:48:49;101329.16;;;-3.71;73.23
84853;BME280;75109;47.440;19.310;2024-01-11T00:49:22;101326.00;;;-3.68;73.06
84853;BME280;75109;47.440;19.310;2024-01-11T00:49:54;101323.72;;;-3.71;72.73
84853;BME280;75109;47.440;19.310;2024-01-11T00:50:27;101319.31;;;-3.72;72.68
84853;BME280;75109;47.440;19.310;2024-01-11T00:50:59;101323.56;;;-3.76;73.42
84853;BME280;75109;47.440;19.310;2024-01-11T00:51:31;101320.81;;;-3.76;73.14
84853;BME280;75109;47.440;19.310;2024-01-11T00:52:03;101323.56;;;-3.76;72.57
84853;BME280;75109;47.440;19.310;2024-01-11T00:52:35;101321.44;;;-3.74;72.99
84853;BME280;75109;47.440;19.310;2024-01-11T00:53:07;101323.94;;;-3.72;72.38
84853;BME280;75109;47.440;19.310;2024-01-11T00:53:41;101324.97;;;-3.73;72.75
84853;BME280;75109;47.440;19.310;2024-01-11T00:54:13;101323.94;;;-3.72;72.40
84853;BME280;75109;47.440;19.310;2024-01-11T00:54:45;101323.94;;;-3.72;73.10
84853;BME280;75109;47.440;19.310;2024-01-11T00:55:17;101322.25;;;-3.73;72.94
84853;BME280;75109;47.440;19.310;2024-01-11T00:55:51;101320.59;;;-3.74;72.41
84853;BME280;75109;47.440;19.310;2024-01-11T00:56:23;101320.59;;;-3.74;72.38
84853;BME280;75109;47.440;19.310;2024-01-11T00:56:56;101316.19;;;-3.75;72.39
84853;BME280;75109;47.440;19.310;2024-01-11T00:57:28;101321.44;;;-3.74;72.87
84853;BME280;75109;47.440;19.310;2024-01-11T00:58:00;101317.66;;;-3.73;72.84
84853;BME280;75109;47.440;19.310;2024-01-11T00:58:33;101312.84;;;-3.77;73.04
84853;BME280;75109;47.440;19.310;2024-01-11T00:59:05;101321.25;;;-3.79;73.37
84853;BME280;75109;47.440;19.310;2024-01-11T00:59:37;101315.19;;;-3.81;73.34
84853;BME280;75109;47.440;19.310;2024-01-11T01:00:11;101315.19;;;-3.81;73.42
84853;BME280;75109;47.440;19.310;2024-01-11T01:00:46;101317.47;;;-3.78;73.06
84853;BME280;75109;47.440;19.310;2024-01-11T01:01:18;101323.75;;;-3.77;73.49
84853;BME280;75109;47.440;19.310;2024-01-11T01:01:50;101315.38;;;-3.76;73.48
84853;BME280;75109;47.440;19.310;2024-01-11T01:02:23;101311.81;;;-3.76;73.11
84853;BME280;75109;47.440;19.310;2024-01-11T01:02:55;101312.03;;;-3.78;72.91
84853;BME280;75109;47.440;19.310;2024-01-11T01:03:27;101310.34;;;-3.79;72.57
84853;BME280;75109;47.440;19.310;2024-01-11T01:03:59;101308.22;;;-3.77;72.39
84853;BME280;75109;47.440;19.310;2024-01-11T01:04:32;101316.41;;;-3.77;72.71
84853;BME280;75109;47.440;19.310;2024-01-11T01:05:04;101311.19;;;-3.78;72.98
84853;BME280;75109;47.440;19.310;2024-01-11T01:05:36;101305.13;;;-3.80;72.61
84853;BME280;75109;47.440;19.310;2024-01-11T01:06:08;101307.00;;;-3.81;73.01
84853;BME280;75109;47.440;19.310;2024-01-11T01:06:41;101299.91;;;-3.82;72.73
84853;BME280;75109;47.440;19.310;2024-01-11T01:07:13;101310.81;;;-3.82;72.44
84853;BME280;75109;47.440;19.310;2024-01-11T01:07:45;101309.72;;;-3.81;73.05
84853;BME280;75109;47.440;19.310;2024-01-11T01:08:17;101302.16;;;-3.79;72.60
84853;BME280;75109;47.440;19.310;2024-01-11T01:08:50;101308.69;;;-3.80;72.06
84853;BME280;75109;47.440;19.310;2024-01-11T01:09:22;101301.13;;;-3.78;72.79
84853;BME280;75109;47.440;19.310;2024-01-11T01:09:54;101307.63;;;-3.79;72.29
84853;BME280;75109;47.440;19.310;2024-01-11T01:10:26;101299.06;;;-3.82;72.71
84853;BME280;75109;47.440;19.310;2024-01-11T01:10:58;101296.97;;;-3.87;73.25
84853;BME280;75109;47.440;19.310;2024-01-11T01:11:30;101302.44;;;-3.87;73.38
84853;BME280;75109;47.440;19.310;2024-01-11T01:12:04;101302.44;;;-3.87;73.42
84853;BME280;75109;47.440;19.310;2024-01-11T01:12:37;101301.19;;;-3.91;73.30
84853;BME280;75109;47.440;19.310;2024-01-11T01:13:09;101308.13;;;-3.95;73.38
84853;BME280;75109;47.440;19.310;2024-01-11T01:13:41;101297.91;;;-3.99;73.04
84853;BME280;75109;47.440;19.310;2024-01-11T01:14:13;101296.44;;;-4.02;73.05
84853;BME280;75109;47.440;19.310;2024-01-11T01:14:46;101297.28;;;-4.01;73.34
84853;BME280;75109;47.440;19.310;2024-01-11T01:15:18;101293.06;;;-3.97;73.16
84853;BME280;75109;47.440;19.310;2024-01-11T01:15:50;101302.06;;;-3.97;73.40
84853;BME280;75109;47.440;19.310;2024-01-11T01:16:22;101293.88;;;-3.97;72.91
84853;BME280;75109;47.440;19.310;2024-01-11T01:16:54;101301.25;;;-3.97;73.05
84853;BME280;75109;47.440;19.310;2024-01-11T01:17:26;101294.72;;;-3.96;73.17
84853;BME280;75109;47.440;19.310;2024-01-11T01:17:58;101297.22;;;-3.95;72.95
84853;BME280;75109;47.440;19.310;2024-01-11T01:18:30;101298.06;;;-3.94;72.88
84853;BME280;75109;47.440;19.310;2024-01-11T01:19:02;101300.81;;;-3.94;72.71
84853;BME280;75109;47.440;19.310;2024-01-11T01:19:34;101289.50;;;-3.98;72.93
84853;BME280;75109;47.440;19.310;2024-01-11T01:20:08;101303.59;;;-4.01;72.87
84853;BME280;75109;47.440;19.310;2024-01-11T01:20:40;101297.91;;;-3.99;72.51
84853;BME280;75109;47.440;19.310;2024-01-11T01:21:12;101296.63;;;-3.97;72.41
84853;BME280;75109;47.440;19.310;2024-01-11T01:21:44;101288.88;;;-4.00;72.42
84853;BME280;75109;47.440;19.310;2024-01-11T01:22:16;101292.47;;;-3.99;73.04
84853;BME280;75109;47.440;19.310;2024-01-11T01:22:49;101288.88;;;-4.00;73.21
84853;BME280;75109;47.440;19.310;2024-01-11T01:23:21;101297.06;;;-4.00;72.67
84853;BME280;75109;47.440;19.310;2024-01-11T01:23:54;101293.28;;;-3.99;73.36
84853;BME280;75109;47.440;19.310;2024-01-11T01:24:26;101294.97;;;-3.98;73.19
84853;BME280;75109;47.440;19.310;2024-01-11T01:24:58;101290.34;;;-3.97;73.32
84853;BME280;75109;47.440;19.310;2024-01-11T01:25:30;101286.78;;;-3.98;73.29
84853;BME280;75109;47.440;19.310;2024-01-11T01:26:02;101286.78;;;-3.98;72.82
84853;BME280;75109;47.440;19.310;2024-01-11T01:26:35;101281.56;;;-3.99;73.29
84853;BME280;75109;47.440;19.310;2024-01-11T01:27:08;101292.47;;;-3.99;72.76
84853;BME280;75109;47.440;19.310;2024-01-11T01:27:41;101296.22;;;-4.00;73.39
84853;BME280;75109;47.440;19.310;2024-01-11T01:28:13;101277.81;;;-4.05;72.98
84853;BME280;75109;47.440;19.310;2024-01-11T01:28:45;101285.56;;;-4.08;73.46
84853;BME280;75109;47.440;19.310;2024-01-11T01:29:17;101283.91;;;-4.03;74.02
84853;BME280;75109;47.440;19.310;2024-01-11T01:29:49;101279.06;;;-4.01;72.97
84853;BME280;75109;47.440;19.310;2024-01-11T01:30:21;101280.50;;;-3.98;73.31
84853;BME280;75109;47.440;19.310;2024-01-11T01:30:54;101281.94;;;-3.96;73.37
84853;BME280;75109;47.440;19.310;2024-01-11T01:31:26;101278.38;;;-3.96;73.32
84853;BME280;75109;47.440;19.310;2024-01-11T01:31:58;101283.22;;;-3.98;73.59
84853;BME280;75109;47.440;19.310;2024-01-11T01:32:30;101281.94;;;-3.96;72.99
84853;BME280;75109;47.440;19.310;2024-01-11T01:33:03;101283.00;;;-3.97;73.62
84853;BME280;75109;47.440;19.310;2024-01-11T01:33:35;101279.22;;;-3.96;72.99
84853;BME280;75109;47.440;19.310;2024-01-11T01:34:07;101283.00;;;-3.97;73.06
84853;BME280;75109;47.440;19.310;2024-01-11T01:34:39;101274.81;;;-3.97;72.69
84853;BME280;75109;47.440;19.310;2024-01-11T01:35:11;101280.72;;;-4.00;73.26
84853;BME280;75109;47.440;19.310;2024-01-11T01:35:43;101281.16;;;-4.03;73.23
84853;BME280;75109;47.440;19.310;2024-01-11T01:36:16;101277.22;;;-4.07;72.91
84853;BME280;75109;47.440;19.310;2024-01-11T01:36:49;101274.69;;;-4.08;73.21
84853;BME280;75109;47.440;19.310;2024-01-11T01:37:21;101273.66;;;-4.14;73.17
84853;BME280;75109;47.440;19.310;2024-01-11T01:37:53;101271.56;;;-4.12;73.76
84853;BME280;75109;47.440;19.310;2024-01-11T01:38:25;101272.78;;;-4.08;73.27
84853;BME280;75109;47.440;19.310;2024-01-11T01:38:57;101274.69;;;-4.08;73.52
84853;BME280;75109;47.440;19.310;2024-01-11T01:39:29;101267.34;;;-4.08;72.75
84853;BME280;75109;47.440;19.310;2024-01-11T01:40:01;101275.28;;;-4.06;73.60
84853;BME280;75109;47.440;19.310;2024-01-11T01:40:33;101268.41;;;-4.09;73.66
84853;BME280;75109;47.440;19.310;2024-01-11T01:41:05;101274.03;;;-4.04;72.90
84853;BME280;75109;47.440;19.310;2024-01-11T01:41:37;101277.38;;;-4.02;73.52
84853;BME280;75109;47.440;19.310;2024-01-11T01:42:11;101279.06;;;-4.01;73.32
84853;BME280;75109;47.440;19.310;2024-01-11T01:42:43;101275.72;;;-4.03;73.13
84853;BME280;75109;47.440;19.310;2024-01-11T01:43:18;101271.94;;;-4.02;73.64
84853;BME280;75109;47.440;19.310;2024-01-11T01:43:50;101279.88;;;-4.00;72.83
84853;BME280;75109;47.440;19.310;2024-01-11T01:44:22;101273.00;;;-4.03;73.28
84853;BME280;75109;47.440;19.310;2024-01-11T01:44:54;101273.19;;;-4.04;72.97
84853;BME280;75109;47.440;19.310;2024-01-11T01:45:27;101274.66;;;-4.02;72.86
84853;BME280;75109;47.440;19.310;2024-01-11T01:46:00;101269.44;;;-4.03;72.88
84853;BME280;75109;47.440;19.310;2024-01-11T01:46:32;101270.88;;;-4.01;73.51
84853;BME280;75109;47.440;19.310;2024-01-11T01:47:06;101267.09;;;-4.00;73.24
84853;BME280;75109;47.440;19.310;2024-01-11T01:47:40;101269.81;;;-4.00;73.31
84853;BME280;75109;47.440;19.310;2024-01-11T01:48:13;101266.88;;;-3.98;73.15
84853;BME280;75109;47.440;19.310;2024-01-11T01:48:45;101258.31;;;-4.02;73.61
84853;BME280;75109;47.440;19.310;2024-01-11T01:49:17;101256.81;;;-3.98;73.21
84853;BME280;75109;47.440;19.310;2024-01-11T01:49:55;101268.31;;;-3.96;73.68
84853;BME280;75109;47.440;19.310;2024-01-11T01:50:28;101263.72;;;-3.95;72.94
84853;BME280;75109;47.440;19.310;2024-01-11T01:51:01;101261.00;;;-3.95;73.35
84853;BME280;75109;47.440;19.310;2024-01-11T01:51:34;101266.66;;;-3.97;73.59
84853;BME280;75109;47.440;19.310;2024-01-11T01:52:07;101263.50;;;-3.94;72.88
84853;BME280;75109;47.440;19.310;2024-01-11T01:52:42;101264.34;;;-3.93;72.47
84853;BME280;75109;47.440;19.310;2024-01-11T01:53:16;101257.44;;;-3.96;72.81
84853;BME280;75109;47.440;19.310;2024-01-11T01:53:50;101254.72;;;-3.96;73.07
84853;BME280;75109;47.440;19.310;2024-01-11T01:54:24;101254.72;;;-3.96;73.26
84853;BME280;75109;47.440;19.310;2024-01-11T01:54:58;101255.75;;;-3.97;73.06
84853;BME280;75109;47.440;19.310;2024-01-11T01:55:31;101256.81;;;-3.98;72.76
84853;BME280;75109;47.440;19.310;2024-01-11T01:56:04;101263.53;;;-4.00;72.49
84853;BME280;75109;47.440;19.310;2024-01-11T01:56:38;101252.84;;;-4.02;73.01
84853;BME280;75109;47.440;19.310;2024-01-11T01:57:12;101249.50;;;-4.04;73.17
84853;BME280;75109;47.440;19.310;2024-01-11T01:57:46;101259.78;;;-4.06;72.67
84853;BME280;75109;47.440;19.310;2024-01-11T01:58:20;101252.47;;;-4.05;73.46
84853;BME280;75109;47.440;19.310;2024-01-11T01:58:54;101254.97;;;-4.04;73.45
84853;BME280;75109;47.440;19.310;2024-01-11T01:59:27;101254.97;;;-4.04;73.48
84853;BME280;75109;47.440;19.310;2024-01-11T02:00:02;101248.66;;;-4.04;72.79
84853;BME280;75109;47.440;19.310;2024-01-11T02:00:34;101245.13;;;-4.05;73.39
84853;BME280;75109;47.440;19.310;2024-01-11T02:01:06;101245.34;;;-4.06;72.52
84853;BME280;75109;47.440;19.310;2024-01-11T02:01:40;101248.06;;;-4.06;72.83
84853;BME280;75109;47.440;19.310;2024-01-11T02:02:13;101245.94;;;-4.04;72.95
84853;BME280;75109;47.440;19.310;2024-01-11T02:02:50;101247.84;;;-4.05;72.88
84853;BME280;75109;47.440;19.310;2024-01-11T02:03:24;101247.44;;;-4.08;72.34
84853;BME280;75109;47.440;19.310;2024-01-11T02:04:00;101242.84;;;-4.08;73.12
84853;BME280;75109;47.440;19.310;2024-01-11T02:04:33;101247.25;;;-4.07;73.13
84853;BME280;75109;47.440;19.310;2024-01-11T02:05:07;101243.22;;;-4.04;72.68
84853;BME280;75109;47.440;19.310;2024-01-11T02:05:39;101242.00;;;-4.08;73.30
84853;BME280;75109;47.440;19.310;2024-01-11T02:06:14;101241.38;;;-4.10;72.76
84853;BME280;75109;47.440;19.310;2024-01-11T02:06:47;101239.50;;;-4.10;73.27
84853;BME280;75109;47.440;19.310;2024-01-11T02:07:19;101235.72;;;-4.09;73.01
84853;BME280;75109;47.440;19.310;2024-01-11T02:07:52;101237.16;;;-4.06;73.13
84853;BME280;75109;47.440;19.310;2024-01-11T02:08:25;101239.50;;;-4.10;72.86
84853;BME280;75109;47.440;19.310;2024-01-11T02:08:59;101239.06;;;-4.07;73.30
84853;BME280;75109;47.440;19.310;2024-01-11T02:09:33;101236.97;;;-4.05;73.23
84853;BME280;75109;47.440;19.310;2024-01-11T02:10:07;101234.03;;;-4.10;73.31
84853;BME280;75109;47.440;19.310;2024-01-11T02:10:39;101238.44;;;-4.09;72.64
84853;BME280;75109;47.440;19.310;2024-01-11T02:11:11;101232.16;;;-4.09;73.32
84853;BME280;75109;47.440;19.310;2024-01-11T02:11:44;101237.63;;;-4.09;73.36
84853;BME280;75109;47.440;19.310;2024-01-11T02:12:18;101239.94;;;-4.13;72.76
84853;BME280;75109;47.440;19.310;2024-01-11T02:12:50;101234.50;;;-4.13;73.76
84853;BME280;75109;47.440;19.310;2024-01-11T02:13:22;101233.66;;;-4.13;72.93
84853;BME280;75109;47.440;19.310;2024-01-11T02:13:55;101239.09;;;-4.13;73.38
84853;BME280;75109;47.440;19.310;2024-01-11T02:14:27;101236.59;;;-4.15;73.43
84853;BME280;75109;47.440;19.310;2024-01-11T02:15:00;101233.88;;;-4.15;72.70
84853;BME280;75109;47.440;19.310;2024-01-11T02:15:33;101226.75;;;-4.16;73.56
84853;BME280;75109;47.440;19.310;2024-01-11T02:16:05;101234.72;;;-4.14;72.86
84853;BME280;75109;47.440;19.310;2024-01-11T02:16:37;101237.22;;;-4.13;73.69
84853;BME280;75109;47.440;19.310;2024-01-11T02:17:09;101233.44;;;-4.12;72.95
84853;BME280;75109;47.440;19.310;2024-01-11T02:17:41;101232.38;;;-4.11;73.36
84853;BME280;75109;47.440;19.310;2024-01-11T02:18:14;101232.81;;;-4.14;73.42
84853;BME280;75109;47.440;19.310;2024-01-11T02:18:46;101223.59;;;-4.13;73.40
84853;BME280;75109;47.440;19.310;2024-01-11T02:19:19;101227.16;;;-4.12;73.51
84853;BME280;75109;47.440;19.310;2024-01-11T02:19:51;101223.81;;;-4.14;73.08
84853;BME280;75109;47.440;19.310;2024-01-11T02:20:23;101227.97;;;-4.12;73.59
84853;BME280;75109;47.440;19.310;2024-01-11T02:20:56;101226.31;;;-4.13;73.50
84853;BME280;75109;47.440;19.310;2024-01-11T02:21:30;101222.53;;;-4.12;73.33
84853;BME280;75109;47.440;19.310;2024-01-11T02:22:10;101224.00;;;-4.09;73.32
84853;BME280;75109;47.440;19.310;2024-01-11T02:22:47;101219.38;;;-4.09;72.57
84853;BME280;75109;47.440;19.310;2024-01-11T02:23:24;101218.16;;;-4.13;72.61
84853;BME280;75109;47.440;19.310;2024-01-11T02:24:06;101218.56;;;-4.16;72.98
84853;BME280;75109;47.440;19.310;2024-01-11T02:24:38;101217.16;;;-4.18;73.35
84853;BME280;75109;47.440;19.310;2024-01-11T02:25:10;101220.25;;;-4.15;72.76
84853;BME280;75109;47.440;19.310;2024-01-11T02:25:43;101213.13;;;-4.16;73.04
84853;BME280;75109;47.440;19.310;2024-01-11T02:26:15;101209.78;;;-4.18;73.14
84853;BME280;75109;47.440;19.310;2024-01-11T02:27:08;101215.28;;;-4.24;73.81
84853;BME280;75109;47.440;19.310;2024-01-11T02:27:46;101209.66;;;-4.29;73.47
84853;BME280;75109;47.440;19.310;2024-01-11T02:28:19;101216.78;;;-4.28;74.29
84853;BME280;75109;47.440;19.310;2024-01-11T02:28:51;101213.63;;;-4.25;74.36
84853;BME280;75109;47.440;19.310;2024-01-11T02:29:23;101206.91;;;-4.23;73.23
84853;BME280;75109;47.440;19.310;2024-01-11T02:29:55;101207.75;;;-4.22;73.32
84853;BME280;75109;47.440;19.310;2024-01-11T02:30:27;101212.34;;;-4.23;73.77
84853;BME280;75109;47.440;19.310;2024-01-11T02:30:59;101204.19;;;-4.23;73.35
84853;BME280;75109;47.440;19.310;2024-01-11T02:31:31;101212.75;;;-4.19;72.82
84853;BME280;75109;47.440;19.310;2024-01-11T02:32:03;101214.19;;;-4.17;72.68
84853;BME280;75109;47.440;19.310;2024-01-11T02:32:38;101208.13;;;-4.19;73.07
84853;BME280;75109;47.440;19.310;2024-01-11T02:33:10;101206.25;;;-4.18;72.79
84853;BME280;75109;47.440;19.310;2024-01-11T02:33:44;101202.47;;;-4.17;72.38
84853;BME280;75109;47.440;19.310;2024-01-11T02:34:17;101210.25;;;-4.21;72.89
84853;BME280;75109;47.440;19.310;2024-01-11T02:34:49;101204.56;;;-4.19;73.58
84853;BME280;75109;47.440;19.310;2024-01-11T02:35:22;101199.72;;;-4.17;73.34
84853;BME280;75109;47.440;19.310;2024-01-11T02:35:56;101203.06;;;-4.15;73.24
84853;BME280;75109;47.440;19.310;2024-01-11T02:36:28;101202.84;;;-4.14;73.50
84853;BME280;75109;47.440;19.310;2024-01-11T02:37:00;101205.56;;;-4.14;73.57
84853;BME280;75109;47.440;19.310;2024-01-11T02:37:33;101202.03;;;-4.14;73.53
84853;BME280;75109;47.440;19.310;2024-01-11T02:38:05;101199.13;;;-4.19;73.49
84853;BME280;75109;47.440;19.310;2024-01-11T02:38:38;101195.78;;;-4.21;73.14
84853;BME280;75109;47.440;19.310;2024-01-11T02:39:16;101199.13;;;-4.19;73.31
84853;BME280;75109;47.440;19.310;2024-01-11T02:39:49;101203.09;;;-4.22;73.53
84853;BME280;75109;47.440;19.310;2024-01-11T02:40:21;101203.72;;;-4.20;72.81
84853;BME280;75109;47.440;19.310;2024-01-11T02:40:54;101196.63;;;-4.21;72.74
84853;BME280;75109;47.440;19.310;2024-01-11T02:41:28;101202.06;;;-4.21;73.25
84853;BME280;75109;47.440;19.310;2024-01-11T02:42:00;101197.47;;;-4.20;73.05
84853;BME280;75109;47.440;19.310;2024-01-11T02:42:32;101204.56;;;-4.19;72.97
84853;BME280;75109;47.440;19.310;2024-01-11T02:43:08;101200.81;;;-4.18;73.24
84853;BME280;75109;47.440;19.310;2024-01-11T02:43:40;101196.16;;;-4.18;73.54
84853;BME280;75109;47.440;19.310;2024-01-11T02:44:12;101191.19;;;-4.21;72.81
84853;BME280;75109;47.440;19.310;2024-01-11T02:44:44;101190.09;;;-4.20;73.02
84853;BME280;75109;47.440;19.310;2024-01-11T02:45:16;101191.22;;;-4.27;73.53
84853;BME280;75109;47.440;19.310;2024-01-11T02:45:48;101191.81;;;-4.25;74.06
84853;BME280;75109;47.440;19.310;2024-01-11T02:46:21;101194.31;;;-4.24;74.06
84853;BME280;75109;47.440;19.310;2024-01-11T02:46:53;101187.59;;;-4.21;73.95
84853;BME280;75109;47.440;19.310;2024-01-11T02:47:25;101190.34;;;-4.21;73.29
84853;BME280;75109;47.440;19.310;2024-01-11T02:47:57;101185.72;;;-4.21;73.03
84853;BME280;75109;47.440;19.310;2024-01-11T02:48:29;101190.09;;;-4.20;73.54
84853;BME280;75109;47.440;19.310;2024-01-11T02:49:02;101192.44;;;-4.23;73.41